Main page
METAR-TAF:

METAR-TAF

Airports :

Kunming, China

Kunming Changshui International Airport

latitude: 25-01N, longitude: 102-41E, elevation: 1892 m

Current weather observation

The report was made 12 minutes ago, at 19:00 UTC
Calm wind
Temperature 15°C
Humidity 55%
Pressure 1018 hPa
Visibility 10 km or more
no clouds below 1500 m and no cumulonimbus

METAR: ZPPP 231900Z 00000MPS CAVOK 15/06 Q1018 NOSIG

Time: 03:12 (19:12 UTC)

Forecast

The report was made 6 hours and 8 minutes ago, at 13:04 UTC
Forecast valid from 23 at 18 UTC to 24 at 18 UTC
Wind 8 kt from the Northeast
Visibility 10 km or more
Scattered clouds at a height of 2600 ft
Becoming
from 24 at 02 UTC to 24 at 03 UTC
Wind 14 kt from the Southwest

TAF: ZPPP 231304Z 2318/2418 04004MPS 9999 SCT026 TX27/2408Z TN13/2323Z BECMG 2402/2403 22007MPS

Weather observations and forecasts of more than 4000 airports (METAR and TAF reports).

The available stations are represented by yellow and red dots on the map.

Hover mouse over dot to see the name of the station.

Then click to see weather observations and forecasts.

To change the map : click on the green buttons with a black cross to zoom in, on the green button with a dash to zoom out, or on the green arrows for adjacent maps.


METAR-TAF: